| time (UTC) | temp C | wind direction | speed KPH | gust KPH | rain 1hr cm | rain 24hr cm | rain mn cm | humidity % | barometer mb |
| 20260507183550 | 11 | 43 | 1.6 | 6.4 | 0.18 | 3.58 | 3.58 | 95 | 1010.5 |
| 20260507182532 | 11 | 5 | 3.2 | 9.7 | 0.23 | 3.58 | 3.58 | 95 | 1010.6 |
| 20260507181519 | 11 | 14 | 3.2 | 12.9 | 0.23 | 3.56 | 3.56 | 95 | 1009.8 |
| 20260507180606 | 11 | 23 | 1.6 | 9.7 | 0.28 | 3.53 | 3.53 | 95 | 1010.1 |
| 20260507175553 | 11 | 90 | 3.2 | 9.7 | 0.28 | 3.51 | 3.51 | 95 | 1010.4 |
| 20260507174539 | 11 | 47 | 1.6 | 4.8 | 0.25 | 3.48 | 3.48 | 95 | 1010.9 |
| 20260507173523 | 11 | 45 | 1.6 | 6.4 | 0.20 | 3.40 | 3.40 | 95 | 1011.2 |
| 20260507172609 | 11 | 15 | 1.6 | 4.8 | 0.18 | 3.35 | 3.35 | 95 | 1011.4 |
| 20260507171556 | 11 | 59 | 1.6 | 6.4 | 0.23 | 3.33 | 3.33 | 95 | 1011.5 |
| 20260507170536 | 11 | 66 | 0.0 | 3.2 | 0.25 | 3.25 | 3.25 | 95 | 1011.6 |
| 20260507165524 | 11 | 32 | 1.6 | 9.7 | 0.33 | 3.23 | 3.23 | 95 | 1011.4 |
| 20260507164607 | 11 | 95 | 3.2 | 6.4 | 0.53 | 3.23 | 3.23 | 95 | 1011.3 |
| 20260507163553 | 11 | 98 | 1.6 | 3.2 | 0.71 | 3.20 | 3.20 | 95 | 1011.4 |
| 20260507162541 | 11 | 351 | 3.2 | 6.4 | 0.86 | 3.17 | 3.17 | 95 | 1011.2 |
| 20260507161548 | 11 | 33 | 1.6 | 12.9 | 0.94 | 3.10 | 3.10 | 95 | 1011.2 |
| 20260507160615 | 11 | 20 | 1.6 | 4.8 | 1.02 | 3.00 | 3.00 | 95 | 1011.4 |
| 20260507155600 | 11 | 339 | 1.6 | 6.4 | 1.12 | 2.90 | 2.90 | 95 | 1011.1 |
| 20260507154543 | 12 | 95 | 4.8 | 9.7 | 1.04 | 2.69 | 2.69 | 95 | 1010.9 |
| 20260507153530 | 12 | 58 | 1.6 | 11.3 | 0.86 | 2.49 | 2.49 | 95 | 1011.1 |
| 20260507152518 | 12 | 23 | 3.2 | 12.9 | 0.74 | 2.31 | 2.31 | 95 | 1011.3 |
| 20260507151605 | 12 | 9 | 3.2 | 12.9 | 0.64 | 2.16 | 2.16 | 95 | 1011.5 |
| 20260507150552 | 12 | 12 | 3.2 | 14.5 | 0.46 | 1.98 | 1.98 | 95 | 1011.4 |
| 20260507145539 | 12 | 353 | 4.8 | 14.5 | 0.28 | 1.78 | 1.78 | 95 | 1011.2 |
| 20260507144606 | 13 | 1 | 4.8 | 14.5 | 0.18 | 1.65 | 1.65 | 95 | 1011.2 |
| 20260507143614 | 13 | 34 | 4.8 | 12.9 | 0.15 | 1.63 | 1.63 | 95 | 1011.0 |
| 20260507142614 | 14 | 15 | 3.2 | 11.3 | 0.13 | 1.57 | 1.57 | 95 | 1010.8 |
| 20260507141541 | 14 | 49 | 3.2 | 11.3 | 0.10 | 1.52 | 1.52 | 95 | 1010.9 |
| 20260507140547 | 15 | 43 | 3.2 | 11.3 | 0.15 | 1.52 | 1.52 | 95 | 1010.7 |
| 20260507135616 | 15 | 80 | 3.2 | 11.3 | 0.23 | 1.50 | 1.50 | 95 | 1010.7 |
| 20260507134600 | 15 | 26 | 3.2 | 9.7 | 0.23 | 1.47 | 1.47 | 95 | 1010.5 |
| 20260507133606 | 15 | 9 | 1.6 | 3.2 | 0.23 | 1.47 | 1.47 | 95 | 1010.5 |
| 20260507132533 | 15 | 356 | 3.2 | 6.4 | 0.23 | 1.45 | 1.45 | 95 | 1010.5 |
| 20260507131521 | 15 | 22 | 1.6 | 6.4 | 0.25 | 1.42 | 1.42 | 95 | 1010.5 |
| 20260507130600 | 15 | 9 | 1.6 | 6.4 | 0.36 | 1.37 | 1.37 | 94 | 1010.8 |
| 20260507125628 | 15 | 359 | 3.2 | 9.7 | 0.38 | 1.27 | 1.27 | 94 | 1011.1 |
| 20260507124534 | 15 | 2 | 3.2 | 11.3 | 0.51 | 1.24 | 1.24 | 94 | 1010.8 |
| 20260507123518 | 15 | 2 | 3.2 | 9.7 | 0.66 | 1.24 | 1.24 | 94 | 1010.8 |
| 20260507122606 | 15 | 2 | 3.2 | 9.7 | 0.74 | 1.22 | 1.22 | 94 | 1011.0 |
| 20260507121552 | 15 | 1 | 3.2 | 11.3 | 0.79 | 1.17 | 1.17 | 94 | 1011.0 |
| 20260507120537 | 16 | 15 | 6.4 | 17.7 | 0.84 | 1.02 | 1.02 | 93 | 1010.7 |
| 20260507115525 | 18 | 298 | 1.6 | 4.8 | 0.71 | 0.89 | 0.89 | 94 | 1010.4 |
| 20260507114613 | 18 | 303 | 0.0 | 4.8 | 0.58 | 0.74 | 0.74 | 93 | 1010.5 |
| 20260507113637 | 18 | 281 | 0.0 | 1.6 | 0.43 | 0.58 | 0.58 | 93 | 1010.3 |
| 20260507112542 | 18 | 302 | 1.6 | 3.2 | 0.41 | 0.48 | 0.48 | 93 | 1010.3 |
| 20260507111610 | 18 | 286 | 1.6 | 4.8 | 0.36 | 0.38 | 0.38 | 93 | 1010.3 |
| 20260507110616 | 18 | 273 | 0.0 | 3.2 | 0.15 | 0.18 | 0.18 | 92 | 1010.2 |
| 20260507105554 | 18 | 283 | 1.6 | 3.2 | 0.15 | 0.18 | 0.18 | 92 | 1010.2 |
| 20260507104541 | 18 | 272 | 1.6 | 3.2 | 0.13 | 0.15 | 0.15 | 91 | 1010.2 |
| 20260507103528 | 19 | 293 | 1.6 | 3.2 | 0.13 | 0.15 | 0.15 | 90 | 1010.1 |
| 20260507102616 | 19 | 298 | 1.6 | 4.8 | 0.05 | 0.08 | 0.08 | 89 | 1010.1 |
| 20260507101603 | 19 | 257 | 3.2 | 9.7 | 0.00 | 0.03 | 0.03 | 88 | 1009.6 |
| 20260507100549 | 19 | 273 | 3.2 | 9.7 | 0.00 | 0.03 | 0.03 | 87 | 1009.3 |
| 20260507095537 | 20 | 254 | 3.2 | 12.9 | 0.00 | 0.03 | 0.03 | 86 | 1009.2 |
| 20260507094545 | 20 | 231 | 3.2 | 9.7 | 0.00 | 0.03 | 0.03 | 85 | 1009.2 |
| 20260507093612 | 20 | 270 | 3.2 | 6.4 | 0.00 | 0.03 | 0.03 | 85 | 1009.0 |
| 20260507092559 | 20 | 272 | 3.2 | 9.7 | 0.00 | 0.03 | 0.03 | 85 | 1009.1 |
| 20260507091543 | 20 | 260 | 1.6 | 9.7 | 0.00 | 0.03 | 0.03 | 84 | 1009.2 |
| 20260507090529 | 20 | 254 | 4.8 | 9.7 | 0.00 | 0.03 | 0.03 | 84 | 1009.3 |
| 20260507085516 | 20 | 268 | 3.2 | 9.7 | 0.00 | 0.03 | 0.03 | 83 | 1009.5 |
| 20260507084600 | 20 | 286 | 4.8 | 11.3 | 0.00 | 0.03 | 0.03 | 83 | 1009.5 |
| 20260507083545 | 20 | 256 | 3.2 | 9.7 | 0.00 | 0.03 | 0.03 | 82 | 1009.8 |
| 20260507082532 | 20 | 278 | 4.8 | 9.7 | 0.00 | 0.03 | 0.03 | 81 | 1009.7 |
| 20260507081519 | 20 | 279 | 4.8 | 12.9 | 0.00 | 0.03 | 0.03 | 80 | 1010.0 |
| 20260507080600 | 20 | 272 | 3.2 | 11.3 | 0.00 | 0.03 | 0.03 | 79 | 1010.0 |
| 20260507075609 | 20 | 281 | 3.2 | 11.3 | 0.00 | 0.03 | 0.03 | 79 | 1010.1 |
| 20260507074534 | 20 | 232 | 3.2 | 9.7 | 0.00 | 0.03 | 0.03 | 79 | 1010.3 |
| 20260507073541 | 20 | 259 | 3.2 | 9.7 | 0.00 | 0.03 | 0.03 | 80 | 1010.1 |
| 20260507072607 | 20 | 249 | 3.2 | 9.7 | 0.03 | 0.03 | 0.03 | 80 | 1010.1 |
| 20260507071554 | 20 | 283 | 1.6 | 11.3 | 0.03 | 0.03 | 0.03 | 81 | 1010.0 |
| 20260507070544 | 20 | 249 | 3.2 | 6.4 | 0.03 | 0.03 | 0.03 | 82 | 1009.9 |
| 20260507065551 | 20 | 256 | 1.6 | 6.4 | 0.03 | 0.03 | 0.03 | 83 | 1009.8 |
| 20260507064518 | 20 | 249 | 0.0 | 3.2 | 0.03 | 0.03 | 0.03 | 82 | 1009.4 |
| 20260507063603 | 20 | 223 | 1.6 | 4.8 | 0.03 | 0.03 | 0.03 | 81 | 1009.6 |
| 20260507062610 | 20 | 234 | 1.6 | 6.4 | 0.00 | 0.00 | 0.00 | 80 | 1009.8 |
| 20260507061537 | 20 | 260 | 1.6 | 4.8 | 0.00 | 0.00 | 0.00 | 80 | 1010.6 |
| 20260507060522 | 20 | 253 | 1.6 | 9.7 | 0.00 | 0.00 | 0.00 | 79 | 1010.8 |
| 20260507055612 | 20 | 263 | 3.2 | 9.7 | 0.00 | 0.00 | 0.00 | 78 | 1010.9 |
| 20260507054558 | 21 | 250 | 3.2 | 11.3 | 0.00 | 0.00 | 0.00 | 75 | 1011.0 |
| 20260507053546 | 21 | 247 | 3.2 | 12.9 | 0.00 | 0.00 | 0.00 | 73 | 1011.0 |
| 20260507052526 | 21 | 251 | 3.2 | 9.7 | 0.00 | 0.00 | 0.00 | 71 | 1011.0 |
| 20260507051613 | 21 | 230 | 4.8 | 11.3 | 0.00 | 0.00 | 0.00 | 69 | 1011.1 |
| 20260507050559 | 22 | 242 | 1.6 | 9.7 | 0.00 | 0.00 | 0.00 | 69 | 1011.0 |
| 20260507045543 | 22 | 220 | 3.2 | 9.7 | 0.00 | 0.00 | 0.00 | 68 | 1010.8 |
| 20260507044530 | 22 | 279 | 3.2 | 11.3 | 0.00 | 0.00 | 0.00 | 67 | 1010.8 |
| 20260507043517 | 22 | 256 | 1.6 | 9.7 | 0.00 | 0.00 | 0.00 | 67 | 1010.9 |
| 20260507042604 | 22 | 257 | 3.2 | 6.4 | 0.00 | 0.00 | 0.00 | 67 | 1011.0 |
| 20260507041552 | 22 | 230 | 1.6 | 4.8 | 0.00 | 0.00 | 0.00 | 67 | 1011.0 |
| 20260507040531 | 22 | 258 | 1.6 | 11.3 | 0.00 | 0.00 | 0.00 | 67 | 1010.8 |
| 20260507035520 | 22 | 258 | 3.2 | 9.7 | 0.00 | 0.00 | 0.00 | 68 | 1010.6 |
| 20260507034607 | 22 | 231 | 1.6 | 4.8 | 0.00 | 0.00 | 0.00 | 69 | 1010.4 |
| 20260507033550 | 22 | 265 | 1.6 | 4.8 | 0.00 | 0.00 | 0.00 | 69 | 1010.5 |
| 20260507032532 | 22 | 252 | 3.2 | 6.4 | 0.00 | 0.00 | 0.00 | 69 | 1010.3 |
| 20260507031518 | 22 | 260 | 0.0 | 1.6 | 0.00 | 0.00 | 0.00 | 69 | 1010.6 |
| 20260507030600 | 22 | 256 | 1.6 | 3.2 | 0.00 | 0.00 | 0.00 | 68 | 1010.7 |
| 20260507025546 | 22 | 244 | 1.6 | 4.8 | 0.00 | 0.00 | 0.00 | 68 | 1010.6 |
| 20260507024533 | 22 | 258 | 1.6 | 4.8 | 0.00 | 0.00 | 0.00 | 67 | 1011.1 |
| 20260507023636 | 22 | 247 | 1.6 | 4.8 | 0.00 | 0.00 | 0.00 | 67 | 1011.3 |
| 20260507022555 | 22 | 248 | 0.0 | 3.2 | 0.00 | 0.00 | 0.00 | 66 | 1011.3 |
| 20260507021543 | 22 | 254 | 0.0 | 3.2 | 0.00 | 0.00 | 0.00 | 66 | 1011.1 |
| 20260507020530 | 23 | 0.0 | 0.0 | 0.00 | 0.00 | 0.00 | 65 | 1011.1 | |
| 20260507015618 | 23 | 247 | 0.0 | 3.2 | 0.00 | 0.00 | 0.00 | 64 | 1011.4 |
| 20260507014625 | 23 | 255 | 1.6 | 3.2 | 0.00 | 0.00 | 0.00 | 64 | 1011.2 |
| 20260507013551 | 23 | 252 | 1.6 | 6.4 | 0.00 | 0.00 | 0.00 | 63 | 1011.0 |
| 20260507012556 | 23 | 179 | 0.0 | 3.2 | 0.00 | 0.00 | 0.00 | 64 | 1011.1 |
| 20260507011523 | 23 | 269 | 0.0 | 1.6 | 0.00 | 0.00 | 0.00 | 63 | 1011.1 |
| 20260507010604 | 23 | 0.0 | 0.0 | 0.00 | 0.00 | 0.00 | 63 | 1011.2 | |
| 20260507005611 | 23 | 251 | 0.0 | 1.6 | 0.00 | 0.00 | 0.00 | 62 | 1011.4 |
| 20260507004539 | 23 | 236 | 0.0 | 3.2 | 0.00 | 0.00 | 0.00 | 61 | 1011.1 |
| 20260507003525 | 24 | 247 | 0.0 | 3.2 | 0.00 | 0.00 | 0.00 | 60 | 1010.7 |
| 20260507002613 | 24 | 255 | 3.2 | 6.4 | 0.00 | 0.00 | 0.00 | 59 | 1010.8 |
| 20260507001601 | 24 | 260 | 3.2 | 6.4 | 0.00 | 0.00 | 0.00 | 59 | 1010.7 |
| 20260507000607 | 24 | 241 | 1.6 | 4.8 | 0.00 | 0.00 | 0.00 | 58 | 1010.6 |
| 20260506235534 | 25 | 227 | 1.6 | 6.4 | 0.00 | 0.00 | 0.00 | 57 | 1010.6 |
| 20260506234521 | 25 | 270 | 3.2 | 4.8 | 0.00 | 0.00 | 0.00 | 57 | 1010.4 |
| 20260506233626 | 25 | 236 | 1.6 | 6.4 | 0.00 | 0.00 | 0.00 | 56 | 1010.1 |
| 20260506232612 | 25 | 252 | 1.6 | 6.4 | 0.00 | 0.00 | 0.00 | 56 | 1010.1 |
| 20260506231535 | 25 | 273 | 3.2 | 6.4 | 0.00 | 0.00 | 0.00 | 55 | 1010.1 |
| 20260506230519 | 25 | 256 | 3.2 | 9.7 | 0.00 | 0.00 | 0.00 | 55 | 1009.9 |
| 20260506225607 | 25 | 224 | 3.2 | 11.3 | 0.00 | 0.00 | 0.00 | 54 | 1009.9 |
| 20260506224615 | 25 | 266 | 3.2 | 11.3 | 0.00 | 0.00 | 0.00 | 54 | 1009.9 |
| 20260506223542 | 25 | 263 | 1.6 | 4.8 | 0.00 | 0.00 | 0.00 | 55 | 1010.0 |
| 20260506222524 | 26 | 241 | 3.2 | 6.4 | 0.00 | 0.00 | 0.00 | 55 | 1009.9 |
| 20260506221603 | 26 | 231 | 3.2 | 6.4 | 0.00 | 0.00 | 0.00 | 55 | 1009.9 |
| 20260506220551 | 26 | 264 | 4.8 | 14.5 | 0.00 | 0.00 | 0.00 | 55 | 1010.0 |
| 20260506215557 | 26 | 248 | 4.8 | 9.7 | 0.00 | 0.00 | 0.00 | 55 | 1009.8 |
| 20260506214516 | 26 | 230 | 4.8 | 16.1 | 0.00 | 0.00 | 0.00 | 55 | 1009.8 |
| 20260506213607 | 26 | 249 | 6.4 | 12.9 | 0.00 | 0.00 | 0.00 | 55 | 1009.7 |
| 20260506212552 | 26 | 260 | 3.2 | 12.9 | 0.00 | 0.00 | 0.00 | 55 | 1009.5 |
| 20260506211537 | 26 | 236 | 4.8 | 11.3 | 0.00 | 0.00 | 0.00 | 54 | 1009.8 |
| 20260506210517 | 26 | 250 | 3.2 | 12.9 | 0.00 | 0.00 | 0.00 | 55 | 1010.1 |
| 20260506205629 | 26 | 230 | 6.4 | 17.7 | 0.00 | 0.00 | 0.00 | 55 | 1010.1 |
| 20260506204553 | 26 | 251 | 3.2 | 16.1 | 0.00 | 0.00 | 0.00 | 56 | 1010.1 |
| 20260506203539 | 26 | 220 | 6.4 | 17.7 | 0.00 | 0.00 | 0.00 | 55 | 1010.4 |
| 20260506202546 | 26 | 232 | 8.0 | 17.7 | 0.00 | 0.00 | 0.00 | 55 | 1010.7 |
| 20260506201614 | 26 | 279 | 6.4 | 16.1 | 0.00 | 0.00 | 0.00 | 55 | 1010.8 |
| 20260506200559 | 26 | 250 | 11.3 | 22.5 | 0.00 | 0.00 | 0.00 | 54 | 1011.1 |
| 20260506195543 | 26 | 239 | 9.7 | 24.1 | 0.00 | 0.00 | 0.00 | 55 | 1011.1 |
| 20260506194550 | 26 | 230 | 4.8 | 12.9 | 0.00 | 0.00 | 0.00 | 57 | 1011.4 |
| 20260506193517 | 26 | 231 | 4.8 | 14.5 | 0.00 | 0.00 | 0.00 | 58 | 1011.5 |
| 20260506192606 | 26 | 257 | 3.2 | 16.1 | 0.00 | 0.00 | 0.00 | 59 | 1011.5 |
| 20260506191553 | 25 | 261 | 4.8 | 16.1 | 0.00 | 0.00 | 0.00 | 60 | 1011.5 |
| 20260506190538 | 25 | 279 | 6.4 | 14.5 | 0.00 | 0.00 | 0.00 | 61 | 1011.6 |
| 20260506185526 | 25 | 282 | 4.8 | 9.7 | 0.00 | 0.00 | 0.00 | 61 | 1011.9 |
| 20260506184615 | 25 | 235 | 6.4 | 14.5 | 0.00 | 0.00 | 0.00 | 60 | 1011.8 |